createdAt,value
2023-05-03T00:01:57.148Z,0.82
2023-05-03T00:04:23.555Z,0.75
2023-05-03T00:06:50.135Z,0.90
2023-05-03T00:09:16.518Z,0.63
2023-05-03T00:11:42.728Z,0.77
2023-05-03T00:14:08.935Z,0.88
2023-05-03T00:16:35.207Z,0.50
2023-05-03T00:19:01.444Z,0.77
2023-05-03T00:21:27.718Z,0.90
2023-05-03T00:23:53.909Z,0.80
2023-05-03T00:26:23.850Z,0.60
2023-05-03T00:28:50.101Z,0.80
2023-05-03T00:31:16.471Z,0.60
2023-05-03T00:33:42.772Z,0.80
2023-05-03T00:36:14.755Z,0.63
2023-05-03T00:38:41.680Z,0.80
2023-05-03T00:41:09.463Z,0.80
2023-05-03T00:43:35.679Z,0.65
2023-05-03T00:46:15.377Z,1.15
2023-05-03T00:48:47.806Z,0.82
2023-05-03T00:53:42.960Z,0.98
2023-05-03T00:56:09.301Z,0.82
2023-05-03T00:58:38.969Z,0.73
2023-05-03T01:01:05.558Z,0.82
2023-05-03T01:03:31.996Z,0.70
2023-05-03T01:06:21.329Z,0.90
2023-05-03T01:08:53.524Z,0.80
2023-05-03T01:14:47.696Z,0.52
2023-05-03T01:17:14.349Z,0.82
2023-05-03T01:19:45.902Z,0.60
2023-05-03T01:22:18.814Z,1.25
2023-05-03T01:24:51.458Z,0.90
2023-05-03T01:27:17.682Z,1.15
2023-05-03T01:29:47.682Z,0.85
2023-05-03T01:32:19.148Z,0.90
2023-05-03T01:34:48.505Z,0.70
2023-05-03T01:37:14.763Z,0.73
2023-05-03T01:39:45.681Z,0.60
2023-05-03T01:42:12.187Z,0.70
2023-05-03T01:44:39.309Z,0.70
2023-05-03T01:47:05.568Z,0.80
2023-05-03T01:49:31.802Z,0.93
2023-05-03T01:52:00.749Z,0.73
2023-05-03T01:54:28.307Z,0.80
2023-05-03T01:56:54.879Z,0.60
2023-05-03T01:59:21.080Z,0.60
2023-05-03T02:01:47.319Z,0.68
2023-05-03T02:04:15.886Z,0.80
2023-05-03T02:06:42.317Z,0.90
2023-05-03T02:09:08.611Z,0.68
2023-05-03T02:11:36.044Z,0.60
2023-05-03T02:14:02.299Z,0.88
2023-05-03T02:16:30.430Z,0.65
2023-05-03T02:18:58.059Z,1.15
2023-05-03T02:21:24.361Z,1.20
2023-05-03T02:23:50.569Z,0.88
2023-05-03T02:26:19.332Z,1.00
2023-05-03T02:28:45.553Z,0.68
2023-05-03T02:31:13.079Z,0.65
2023-05-03T02:33:39.431Z,0.82
2023-05-03T02:36:11.722Z,0.77
2023-05-03T02:38:40.303Z,0.65
2023-05-03T02:41:06.571Z,0.80
2023-05-03T02:43:32.830Z,1.23
2023-05-03T02:46:02.683Z,0.77
2023-05-03T02:48:31.320Z,0.80
2023-05-03T02:50:57.518Z,1.23
2023-05-03T02:53:23.782Z,0.70
2023-05-03T02:55:50.124Z,1.30
2023-05-03T02:58:16.436Z,0.93
2023-05-03T03:00:42.616Z,0.80
2023-05-03T03:03:10.108Z,0.80
2023-05-03T03:05:39.356Z,0.82
2023-05-03T03:08:07.791Z,1.05
2023-05-03T03:10:34.014Z,0.80
2023-05-03T03:13:00.252Z,0.77
2023-05-03T03:15:26.497Z,0.80
2023-05-03T03:17:52.723Z,1.10
2023-05-03T03:20:18.924Z,0.77
2023-05-03T03:22:45.237Z,0.80
2023-05-03T03:25:16.911Z,1.00
2023-05-03T03:27:43.142Z,1.00
2023-05-03T03:30:09.697Z,0.98
2023-05-03T03:32:38.240Z,1.17
2023-05-03T03:35:04.741Z,1.20
2023-05-03T03:37:30.982Z,1.05
2023-05-03T03:39:57.240Z,1.30
2023-05-03T03:42:23.660Z,1.20
2023-05-03T03:44:49.959Z,0.90
2023-05-03T03:47:18.564Z,1.30
2023-05-03T03:49:44.800Z,1.05
2023-05-03T03:52:11.026Z,1.30
2023-05-03T03:54:38.408Z,0.90
2023-05-03T03:57:04.710Z,1.20
2023-05-03T03:59:31.894Z,1.20
2023-05-03T04:01:58.292Z,1.20
2023-05-03T04:04:24.748Z,1.02
2023-05-03T04:06:51.265Z,0.82
2023-05-03T04:09:17.627Z,0.90
2023-05-03T04:11:44.393Z,0.93
2023-05-03T04:14:10.589Z,0.82
2023-05-03T04:16:37.073Z,1.27
2023-05-03T04:19:06.390Z,1.30
2023-05-03T04:21:32.805Z,0.90
2023-05-03T04:24:03.650Z,1.15
2023-05-03T04:26:32.184Z,0.98
2023-05-03T04:28:59.269Z,1.30
2023-05-03T04:31:26.012Z,0.90
2023-05-03T04:33:52.535Z,0.80
2023-05-03T04:36:19.038Z,0.90
2023-05-03T04:38:45.469Z,1.08
2023-05-03T04:41:12.829Z,1.13
2023-05-03T04:43:42.158Z,1.00
2023-05-03T04:46:09.345Z,0.95
2023-05-03T04:48:35.546Z,1.13
2023-05-03T04:51:03.256Z,1.20
2023-05-03T04:53:29.481Z,0.90
2023-05-03T04:55:55.851Z,1.02
2023-05-03T04:58:26.571Z,1.00
2023-05-03T05:00:55.325Z,0.82
2023-05-03T05:03:21.683Z,0.88
2023-05-03T05:05:52.166Z,1.23
2023-05-03T05:08:18.362Z,0.90
2023-05-03T05:10:46.695Z,1.20
2023-05-03T05:13:13.033Z,1.00
2023-05-03T05:15:39.303Z,1.20
2023-05-03T05:18:05.610Z,0.93
2023-05-03T05:20:34.347Z,1.27
2023-05-03T05:23:03.066Z,1.33
2023-05-03T05:25:32.473Z,1.10
2023-05-03T05:27:58.720Z,1.10
2023-05-03T05:30:24.996Z,1.20
2023-05-03T05:32:51.462Z,1.10
2023-05-03T05:35:17.701Z,1.15
2023-05-03T05:37:43.914Z,1.30
2023-05-03T05:40:10.480Z,1.02
2023-05-03T05:42:37.932Z,1.27
2023-05-03T05:45:08.581Z,1.35
2023-05-03T05:47:34.906Z,1.08
2023-05-03T05:50:01.315Z,1.10
2023-05-03T05:52:27.677Z,1.27
2023-05-03T05:54:53.927Z,1.45
2023-05-03T05:57:20.141Z,1.10
2023-05-03T05:59:46.612Z,1.30
2023-05-03T06:02:15.559Z,2.10
2023-05-03T06:04:45.663Z,2.00
2023-05-03T06:07:11.940Z,1.42
2023-05-03T06:09:38.190Z,1.17
2023-05-03T06:12:04.517Z,1.50
2023-05-03T06:14:31.923Z,1.67
2023-05-03T06:16:58.204Z,1.30
2023-05-03T06:19:24.503Z,2.17
2023-05-03T06:21:50.786Z,1.83
2023-05-03T06:24:17.149Z,1.60
2023-05-03T06:26:43.460Z,1.70
2023-05-03T06:29:09.775Z,1.33
2023-05-03T06:31:36.145Z,1.80
2023-05-03T06:34:21.785Z,1.40
2023-05-03T06:36:50.582Z,1.52
2023-05-03T06:39:19.987Z,2.00
2023-05-03T06:41:47.724Z,2.03
2023-05-03T06:44:14.071Z,1.90
2023-05-03T06:46:43.595Z,1.80
2023-05-03T06:49:10.030Z,2.17
2023-05-03T06:51:36.407Z,2.03
2023-05-03T06:54:03.273Z,1.35
2023-05-03T06:56:29.543Z,1.20
2023-05-03T06:58:55.808Z,1.23
2023-05-03T07:01:22.112Z,1.35
2023-05-03T07:03:48.616Z,1.75
2023-05-03T07:06:16.124Z,1.45
2023-05-03T07:08:42.561Z,1.85
2023-05-03T07:11:08.766Z,5.88
2023-05-03T07:13:35.022Z,5.63
2023-05-03T07:16:03.484Z,8.43
2023-05-03T07:18:29.999Z,6.85
2023-05-03T07:20:58.895Z,2.40
2023-05-03T07:23:25.326Z,3.40
2023-05-03T07:25:51.518Z,2.30
2023-05-03T07:28:17.880Z,1.65
2023-05-03T07:30:44.074Z,1.90
2023-05-03T07:33:10.369Z,2.05
2023-05-03T07:35:36.715Z,1.35
2023-05-03T07:38:02.952Z,2.03
2023-05-03T07:40:29.357Z,1.08
2023-05-03T07:42:55.594Z,2.13
2023-05-03T07:45:21.797Z,1.00
2023-05-03T07:47:48.043Z,1.50
2023-05-03T07:50:14.330Z,1.80
2023-05-03T07:52:40.609Z,1.20
2023-05-03T07:55:07.159Z,2.03
2023-05-03T07:57:33.522Z,1.63
2023-05-03T07:59:59.734Z,1.83
2023-05-03T08:02:26.087Z,1.00
2023-05-03T08:04:52.842Z,1.35
2023-05-03T08:07:19.265Z,2.00
2023-05-03T08:09:45.483Z,1.83
2023-05-03T08:12:11.678Z,1.20
2023-05-03T08:14:37.861Z,1.27
2023-05-03T08:17:04.213Z,1.02
2023-05-03T08:19:30.577Z,0.90
2023-05-03T08:21:58.089Z,0.63
2023-05-03T08:24:24.460Z,1.08
2023-05-03T08:26:50.891Z,1.33
2023-05-03T08:29:17.307Z,1.60
2023-05-03T08:31:46.512Z,1.33
2023-05-03T08:34:12.797Z,0.60
2023-05-03T08:36:41.867Z,1.30
2023-05-03T08:39:08.145Z,1.20
2023-05-03T08:41:35.586Z,1.45
2023-05-03T08:44:05.926Z,1.27
2023-05-03T08:46:32.180Z,0.90
2023-05-03T08:48:58.667Z,0.93
2023-05-03T08:51:24.930Z,1.50
2023-05-03T08:53:51.286Z,1.40
2023-05-03T08:56:31.593Z,1.10
2023-05-03T08:59:00.063Z,1.33
2023-05-03T09:01:26.385Z,1.33
2023-05-03T09:03:52.665Z,1.27
2023-05-03T09:06:22.896Z,0.98
2023-05-03T09:08:49.252Z,1.30
2023-05-03T09:11:22.407Z,0.98
2023-05-03T09:13:50.799Z,1.48
2023-05-03T09:16:23.886Z,1.25
2023-05-03T09:19:01.542Z,1.40
2023-05-03T09:21:32.258Z,1.17
2023-05-03T09:23:58.889Z,1.90
2023-05-03T09:26:28.206Z,1.08
2023-05-03T09:28:54.613Z,1.30
2023-05-03T09:31:22.780Z,1.60
2023-05-03T09:33:49.048Z,1.13
2023-05-03T09:36:15.381Z,1.25
2023-05-03T09:38:44.053Z,1.48
2023-05-03T09:41:12.802Z,1.10
2023-05-03T09:43:53.084Z,0.93
2023-05-03T09:46:19.432Z,1.20
2023-05-03T09:48:45.706Z,0.90
2023-05-03T09:51:15.144Z,1.60
2023-05-03T09:53:43.942Z,1.20
2023-05-03T09:56:12.035Z,1.15
2023-05-03T09:58:38.605Z,1.20
2023-05-03T10:01:07.847Z,1.35
2023-05-03T10:03:41.186Z,1.60
2023-05-03T10:06:30.693Z,1.05
2023-05-03T10:09:12.319Z,1.05
2023-05-03T10:11:38.575Z,1.38
2023-05-03T10:14:06.476Z,1.77
2023-05-03T10:16:35.077Z,0.88
2023-05-03T10:19:21.883Z,1.13
2023-05-03T10:21:59.935Z,1.42
2023-05-03T10:24:26.336Z,1.58
2023-05-03T10:26:52.679Z,1.30
2023-05-03T10:29:35.409Z,1.58
2023-05-03T10:32:02.037Z,1.23
2023-05-03T10:34:34.420Z,1.25
2023-05-03T10:37:07.912Z,1.65
2023-05-03T10:39:34.264Z,1.50
2023-05-03T10:42:08.235Z,1.50
2023-05-03T10:44:40.173Z,1.17
2023-05-03T10:47:25.111Z,1.55
2023-05-03T10:50:10.245Z,1.45
2023-05-03T10:52:39.270Z,1.17
2023-05-03T10:55:09.499Z,1.23
2023-05-03T11:00:02.876Z,1.50
2023-05-03T11:02:32.962Z,1.33
2023-05-03T11:05:02.910Z,1.73
2023-05-03T11:07:29.407Z,1.65
2023-05-03T11:09:58.601Z,1.70
2023-05-03T11:12:25.067Z,1.70
2023-05-03T11:14:51.343Z,1.60
2023-05-03T11:17:17.864Z,1.85
2023-05-03T11:19:44.522Z,1.33
2023-05-03T11:22:11.955Z,1.77
2023-05-03T11:24:38.377Z,1.65
2023-05-03T11:27:08.227Z,1.60
2023-05-03T11:29:35.080Z,1.70
2023-05-03T11:32:01.530Z,1.73
2023-05-03T11:34:27.987Z,1.70
2023-05-03T11:37:01.131Z,1.73
2023-05-03T11:39:28.080Z,1.60
2023-05-03T11:42:00.965Z,1.80
2023-05-03T11:44:27.396Z,2.17
2023-05-03T11:46:56.473Z,1.85
2023-05-03T11:49:23.907Z,1.50
2023-05-03T11:51:54.929Z,1.92
2023-05-03T11:54:26.411Z,2.05
2023-05-03T11:57:00.269Z,1.63
2023-05-03T11:59:37.240Z,1.85
2023-05-03T12:02:03.652Z,2.03
2023-05-03T12:04:30.876Z,1.60
2023-05-03T12:07:00.830Z,1.73
2023-05-03T12:09:28.395Z,2.50
2023-05-03T12:11:56.160Z,2.63
2023-05-03T12:14:27.082Z,2.40
2023-05-03T12:16:53.758Z,2.25
2023-05-03T12:19:26.356Z,1.92
2023-05-03T12:22:08.655Z,2.15
2023-05-03T12:24:44.763Z,1.85
2023-05-03T12:27:14.244Z,1.90
2023-05-03T12:29:41.885Z,2.08
2023-05-03T12:32:12.232Z,1.83
2023-05-03T12:37:06.801Z,2.20
2023-05-03T12:39:33.734Z,2.80
2023-05-03T12:44:29.784Z,2.40
2023-05-03T12:46:57.238Z,2.20
2023-05-03T12:49:25.964Z,3.53
2023-05-03T12:52:11.321Z,1.92
2023-05-03T12:54:41.879Z,2.22
2023-05-03T12:57:24.758Z,2.60
2023-05-03T12:59:52.584Z,3.10
2023-05-03T13:04:59.092Z,2.22
2023-05-03T13:07:29.121Z,2.13
2023-05-03T13:12:28.860Z,2.50
2023-05-03T13:14:57.594Z,1.95
2023-05-03T13:17:24.148Z,2.22
2023-05-03T13:19:50.855Z,2.60
2023-05-03T13:22:19.534Z,2.30
2023-05-03T13:24:46.583Z,2.30
2023-05-03T13:27:15.278Z,2.85
2023-05-03T13:29:41.731Z,2.92
2023-05-03T13:32:08.369Z,2.25
2023-05-03T13:34:35.148Z,2.60
2023-05-03T13:37:04.818Z,2.20
2023-05-03T13:39:31.349Z,2.10
2023-05-03T13:41:57.643Z,2.90
2023-05-03T13:44:23.894Z,2.00
2023-05-03T13:46:50.263Z,2.10
2023-05-03T13:49:16.652Z,2.60
2023-05-03T13:51:42.872Z,1.98
2023-05-03T13:54:09.075Z,2.35
2023-05-03T13:56:36.671Z,2.30
2023-05-03T13:59:07.838Z,2.65
2023-05-03T14:01:34.118Z,1.90
2023-05-03T14:04:00.461Z,2.13
2023-05-03T14:06:26.922Z,2.42
2023-05-03T14:08:56.024Z,2.30
2023-05-03T14:11:25.386Z,2.40
2023-05-03T14:14:03.855Z,3.10
2023-05-03T14:19:02.011Z,3.10
2023-05-03T14:21:30.142Z,2.28
2023-05-03T14:23:57.245Z,2.75
2023-05-03T14:26:23.723Z,2.70
2023-05-03T14:28:50.061Z,2.55
2023-05-03T14:31:18.139Z,2.20
2023-05-03T14:33:44.403Z,2.30
2023-05-03T14:36:12.448Z,2.30
2023-05-03T14:38:38.688Z,2.95
2023-05-03T14:41:05.084Z,2.80
2023-05-03T14:43:31.826Z,2.42
2023-05-03T14:45:58.267Z,2.17
2023-05-03T14:48:29.544Z,2.20
2023-05-03T14:50:55.803Z,2.67
2023-05-03T14:53:28.058Z,2.13
2023-05-03T14:55:56.823Z,2.60
2023-05-03T14:58:24.366Z,2.42
2023-05-03T15:00:50.655Z,2.95
2023-05-03T15:03:16.983Z,2.15
2023-05-03T15:05:52.800Z,2.00
2023-05-03T15:08:22.247Z,2.83
2023-05-03T15:10:48.765Z,2.60
2023-05-03T15:13:17.148Z,2.65
2023-05-03T15:15:43.910Z,2.60
2023-05-03T15:18:10.317Z,2.80
2023-05-03T15:20:36.698Z,2.45
2023-05-03T15:23:03.432Z,2.60
2023-05-03T15:25:29.973Z,2.83
2023-05-03T15:27:56.209Z,2.70
2023-05-03T15:30:22.463Z,2.67
2023-05-03T15:32:51.330Z,2.83
2023-05-03T15:35:17.713Z,2.90
2023-05-03T15:37:44.059Z,2.58
2023-05-03T15:40:12.078Z,2.92
2023-05-03T15:42:44.247Z,2.35
2023-05-03T15:45:11.751Z,2.55
2023-05-03T15:47:41.087Z,2.85
2023-05-03T15:50:09.707Z,2.25
2023-05-03T15:52:36.011Z,2.83
2023-05-03T15:55:02.298Z,2.90
2023-05-03T15:57:31.549Z,2.50
2023-05-03T15:59:57.827Z,2.60
2023-05-03T16:02:24.063Z,2.30
2023-05-03T16:04:52.896Z,2.38
2023-05-03T16:07:19.165Z,2.25
2023-05-03T16:09:45.457Z,2.63
2023-05-03T16:12:11.804Z,2.53
2023-05-03T16:14:39.272Z,2.70
2023-05-03T16:17:10.123Z,2.47
2023-05-03T16:19:38.676Z,2.55
2023-05-03T16:22:04.944Z,2.42
2023-05-03T16:24:31.506Z,2.72
2023-05-03T16:26:57.769Z,2.63
2023-05-03T16:29:24.076Z,2.60
2023-05-03T16:31:50.306Z,2.53
2023-05-03T16:34:19.722Z,2.75
2023-05-03T16:36:46.081Z,2.22
2023-05-03T16:39:12.595Z,2.22
2023-05-03T16:41:39.141Z,2.22
2023-05-03T16:44:08.822Z,2.33
2023-05-03T16:46:35.677Z,2.50
2023-05-03T16:49:02.273Z,2.88
2023-05-03T16:51:28.557Z,2.53
2023-05-03T16:53:55.026Z,2.92
2023-05-03T16:56:22.019Z,2.72
2023-05-03T16:58:48.277Z,2.60
2023-05-03T17:01:17.138Z,2.67
2023-05-03T17:03:51.126Z,2.22
2023-05-03T17:06:18.947Z,2.50
2023-05-03T17:08:45.509Z,2.45
2023-05-03T17:11:15.568Z,2.63
2023-05-03T17:13:44.090Z,2.92
2023-05-03T17:16:11.276Z,2.90
2023-05-03T17:18:39.449Z,3.03
2023-05-03T17:21:08.831Z,2.67
2023-05-03T17:23:36.177Z,2.55
2023-05-03T17:26:05.685Z,2.65
2023-05-03T17:28:32.384Z,2.42
2023-05-03T17:31:01.748Z,2.65
2023-05-03T17:33:30.610Z,2.80
2023-05-03T17:35:57.008Z,2.92
2023-05-03T17:38:23.652Z,3.50
2023-05-03T17:40:49.971Z,2.80
2023-05-03T17:43:21.382Z,2.47
2023-05-03T17:45:47.646Z,2.70
2023-05-03T17:48:16.216Z,3.25
2023-05-03T17:50:43.617Z,2.33
2023-05-03T17:53:09.912Z,2.63
2023-05-03T17:55:36.728Z,3.35
2023-05-03T17:58:05.053Z,2.42
2023-05-03T18:00:31.418Z,2.75
2023-05-03T18:02:57.744Z,2.38
2023-05-03T18:05:24.207Z,3.08
2023-05-03T18:07:50.474Z,3.65
2023-05-03T18:10:17.944Z,3.50
2023-05-03T18:12:44.250Z,2.42
2023-05-03T18:15:10.885Z,2.80
2023-05-03T18:17:37.175Z,3.40
2023-05-03T18:20:03.612Z,2.65
2023-05-03T18:22:30.136Z,2.85
2023-05-03T18:25:03.820Z,3.38
2023-05-03T18:27:30.021Z,2.65
2023-05-03T18:29:56.375Z,3.03
2023-05-03T18:32:25.771Z,2.58
2023-05-03T18:34:55.677Z,2.70
2023-05-03T18:37:24.599Z,2.83
2023-05-03T18:39:51.300Z,2.85
2023-05-03T18:42:20.467Z,2.83
2023-05-03T18:44:48.059Z,2.92
2023-05-03T18:47:14.497Z,3.03
2023-05-03T18:49:46.036Z,3.22
2023-05-03T18:52:12.324Z,2.85
2023-05-03T18:54:38.558Z,2.72
2023-05-03T18:57:04.804Z,2.67
2023-05-03T18:59:34.574Z,2.40
2023-05-03T19:02:01.829Z,3.15
2023-05-03T19:04:28.096Z,2.53
2023-05-03T19:06:56.830Z,2.88
2023-05-03T19:09:23.058Z,2.90
2023-05-03T19:11:49.396Z,3.15
2023-05-03T19:14:15.813Z,3.25
2023-05-03T19:16:42.095Z,3.28
2023-05-03T19:19:08.422Z,3.15
2023-05-03T19:21:35.820Z,3.13
2023-05-03T19:24:04.561Z,3.00
2023-05-03T19:26:31.980Z,3.65
2023-05-03T19:29:00.708Z,2.88
2023-05-03T19:31:37.812Z,3.00
2023-05-03T19:34:07.771Z,3.83
2023-05-03T19:36:35.787Z,3.60
2023-05-03T19:39:10.478Z,3.70
2023-05-03T19:41:42.265Z,3.58
2023-05-03T19:44:08.511Z,3.55
2023-05-03T19:46:34.862Z,3.72
2023-05-03T19:49:01.128Z,3.58
2023-05-03T19:51:27.420Z,2.60
2023-05-03T19:53:53.689Z,2.78
2023-05-03T19:56:19.912Z,3.10
2023-05-03T19:58:46.209Z,3.55
2023-05-03T20:01:12.612Z,2.95
2023-05-03T20:03:39.138Z,3.22
2023-05-03T20:06:05.479Z,3.75
2023-05-03T20:08:33.004Z,3.78
2023-05-03T20:11:00.655Z,3.85
2023-05-03T20:13:26.894Z,3.13
2023-05-03T20:15:53.484Z,3.08
2023-05-03T20:18:19.944Z,3.92
2023-05-03T20:20:46.282Z,3.92
2023-05-03T20:23:18.141Z,3.40
2023-05-03T20:25:44.411Z,3.28
2023-05-03T20:28:10.615Z,3.05
2023-05-03T20:30:36.854Z,3.15
2023-05-03T20:33:03.407Z,3.40
2023-05-03T20:35:31.008Z,2.67
2023-05-03T20:37:57.465Z,3.50
2023-05-03T20:40:23.990Z,3.10
2023-05-03T20:42:50.243Z,3.75
2023-05-03T20:45:16.513Z,3.15
2023-05-03T20:47:42.780Z,2.80
2023-05-03T20:50:09.121Z,3.00
2023-05-03T20:52:35.428Z,3.55
2023-05-03T20:55:01.666Z,3.60
2023-05-03T20:57:30.430Z,3.03
2023-05-03T20:59:56.681Z,3.30
2023-05-03T21:02:23.073Z,2.78
2023-05-03T21:04:49.323Z,3.20
2023-05-03T21:07:17.087Z,3.42
2023-05-03T21:09:45.862Z,3.15
2023-05-03T21:12:12.188Z,2.92
2023-05-03T21:14:38.392Z,2.80
2023-05-03T21:17:07.136Z,2.60
2023-05-03T21:19:35.897Z,3.63
2023-05-03T21:22:02.122Z,3.67
2023-05-03T21:24:28.316Z,2.75
2023-05-03T21:27:02.056Z,3.28
2023-05-03T21:29:30.927Z,2.97
2023-05-03T21:31:57.133Z,3.13
2023-05-03T21:34:27.070Z,4.38
2023-05-03T21:36:53.337Z,3.15
2023-05-03T21:39:19.682Z,3.60
2023-05-03T21:41:46.024Z,3.40
2023-05-03T21:44:15.297Z,4.35
2023-05-03T21:46:41.580Z,3.55
2023-05-03T21:49:08.035Z,3.78
2023-05-03T21:51:34.300Z,4.30
2023-05-03T21:54:00.570Z,3.33
2023-05-03T21:56:26.875Z,3.20
2023-05-03T21:58:53.134Z,3.65
2023-05-03T22:01:19.395Z,4.38
2023-05-03T22:03:50.169Z,3.83
2023-05-03T22:06:16.601Z,3.80
2023-05-03T22:08:44.113Z,3.67
2023-05-03T22:11:10.360Z,3.80
2023-05-03T22:13:46.033Z,3.60
2023-05-03T22:16:17.011Z,4.22
2023-05-03T22:18:43.319Z,4.03
2023-05-03T22:21:09.497Z,3.47
2023-05-03T22:23:35.742Z,3.67
2023-05-03T22:26:02.297Z,4.47
2023-05-03T22:28:32.006Z,3.75
2023-05-03T22:30:58.256Z,3.67
2023-05-03T22:33:24.852Z,3.95
2023-05-03T22:35:51.197Z,4.13
2023-05-03T22:38:17.490Z,3.83
2023-05-03T22:40:46.873Z,3.92
2023-05-03T22:43:15.973Z,4.18
2023-05-03T22:45:45.341Z,3.83
2023-05-03T22:48:11.654Z,3.90
2023-05-03T22:50:38.004Z,3.88
2023-05-03T22:53:06.302Z,4.47
2023-05-03T22:55:32.648Z,4.05
2023-05-03T22:58:00.120Z,4.50
2023-05-03T23:00:26.410Z,4.03
2023-05-03T23:02:52.779Z,4.70
2023-05-03T23:05:19.339Z,4.32
2023-05-03T23:07:45.759Z,4.45
2023-05-03T23:10:11.974Z,4.03
2023-05-03T23:12:38.268Z,4.72
2023-05-03T23:15:05.057Z,4.03
2023-05-03T23:17:31.338Z,3.92
2023-05-03T23:19:57.551Z,4.50
2023-05-03T23:22:26.345Z,5.15
2023-05-03T23:24:52.553Z,4.88
2023-05-03T23:27:18.990Z,4.28
2023-05-03T23:29:45.816Z,4.70
2023-05-03T23:32:15.097Z,4.65
2023-05-03T23:34:41.808Z,4.32
2023-05-03T23:37:07.992Z,4.63
2023-05-03T23:39:34.279Z,4.13
2023-05-03T23:42:00.550Z,4.85
2023-05-03T23:44:35.875Z,4.43
2023-05-03T23:47:13.512Z,4.85
2023-05-03T23:49:42.813Z,5.00
2023-05-03T23:52:09.022Z,4.40
2023-05-03T23:54:35.604Z,4.25
2023-05-03T23:57:01.901Z,4.50
2023-05-03T23:59:34.474Z,5.05
